Time;durP1;ratioP1;P1;durP2;ratioP2;P2;SDS_P1;SDS_P2;PMS_P1;PMS_P2;Temp;Humidity;BMP_temperature;BMP_pressure;BME280_temperature;BME280_humidity;BME280_pressure;Samples;Min_cycle;Max_cycle;Signal;HPM_P1;HPM_P2
2022/01/19 00:02:19;;;;;;;102.22;16.75;;;;;;;0.17;100.00;103392.34;5075581;28;20392;-77
2022/01/19 00:04:44;;;;;;;201.38;18.45;;;;;;;0.11;100.00;103376.69;5073605;28;20131;-76
2022/01/19 00:07:09;;;;;;;126.55;16.77;;;;;;;0.03;100.00;103376.75;5057971;28;20031;-77
2022/01/19 00:09:35;;;;;;;140.10;15.88;;;;;;;-0.04;100.00;103386.34;5075823;28;20028;-77
2022/01/19 00:12:00;;;;;;;63.75;14.90;;;;;;;-0.12;100.00;103380.31;5075156;28;20036;-76
2022/01/19 00:14:27;;;;;;;87.45;15.35;;;;;;;-0.16;100.00;103377.69;5075399;28;20123;-77
2022/01/19 00:16:52;;;;;;;178.68;17.10;;;;;;;-0.23;100.00;103382.94;5075163;28;20032;-76
2022/01/19 00:19:18;;;;;;;118.60;15.45;;;;;;;-0.28;100.00;103381.25;5074096;28;20044;-76
2022/01/19 00:21:43;;;;;;;78.43;16.38;;;;;;;-0.32;100.00;103372.53;5074776;28;20089;-75
2022/01/19 00:24:09;;;;;;;149.38;16.15;;;;;;;-0.33;100.00;103373.41;5075147;28;20028;-76
2022/01/19 00:26:34;;;;;;;187.38;17.23;;;;;;;-0.38;100.00;103375.19;5075202;28;20040;-76
2022/01/19 00:29:00;;;;;;;139.13;16.38;;;;;;;-0.43;100.00;103363.88;5075053;28;20033;-76
2022/01/19 00:31:25;;;;;;;152.98;17.92;;;;;;;-0.47;100.00;103356.91;5074934;28;20485;-76
2022/01/19 00:33:51;;;;;;;176.98;17.23;;;;;;;-0.50;100.00;103343.84;5074763;28;20029;-77
2022/01/19 00:36:16;;;;;;;152.30;16.48;;;;;;;-0.55;100.00;103334.25;5075232;28;20040;-76
2022/01/19 00:38:41;;;;;;;74.72;16.50;;;;;;;-0.59;100.00;103318.59;5074569;28;20028;-76
2022/01/19 00:41:07;;;;;;;52.10;14.90;;;;;;;-0.61;100.00;103304.63;5074566;28;20029;-77
2022/01/19 00:43:35;;;;;;;58.53;15.70;;;;;;;-0.63;100.00;103299.41;5057520;28;20024;-76
2022/01/19 00:46:02;;;;;;;92.85;16.60;;;;;;;-0.62;100.00;103293.31;5074356;28;20131;-77
2022/01/19 00:48:28;;;;;;;157.90;17.58;;;;;;;-0.63;100.00;103281.09;5074538;28;20037;-76
2022/01/19 00:50:54;;;;;;;200.27;19.40;;;;;;;-0.67;100.00;103279.41;5075341;28;20025;-76
2022/01/19 00:53:19;;;;;;;222.75;19.83;;;;;;;-0.69;100.00;103283.75;5074668;28;20595;-77
2022/01/19 00:55:45;;;;;;;77.45;15.95;;;;;;;-0.73;100.00;103285.53;5072716;28;20040;-76
2022/01/19 00:58:10;;;;;;;120.45;18.35;;;;;;;-0.75;100.00;103284.66;5073128;28;20061;-76
2022/01/19 01:00:36;;;;;;;163.48;18.63;;;;;;;-0.77;100.00;103285.53;5074282;28;20078;-76
2022/01/19 01:03:02;;;;;;;116.35;16.88;;;;;;;-0.81;100.00;103281.19;5074208;28;20392;-76
2022/01/19 01:05:29;;;;;;;112.63;18.15;;;;;;;-0.84;100.00;103275.97;5074474;28;20040;-76
2022/01/19 01:07:54;;;;;;;151.68;19.88;;;;;;;-0.86;100.00;103278.59;5074345;28;20074;-75
2022/01/19 01:10:20;;;;;;;126.65;17.50;;;;;;;-0.86;100.00;103268.13;5074213;28;20041;-75
2022/01/19 01:12:52;;;;;;;91.53;17.10;;;;;;;-0.89;100.00;103258.56;5074772;28;20040;-76
2022/01/19 01:18:28;;;;;;;54.58;16.90;;;;;;;-0.91;100.00;103246.34;5012590;28;20145;-76
2022/01/19 01:20:56;;;;;;;72.95;18.27;;;;;;;-0.91;100.00;103231.56;5061616;28;20556;-77
2022/01/19 01:23:23;;;;;;;56.70;17.77;;;;;;;-0.91;100.00;103228.06;5073870;28;20159;-76
2022/01/19 01:25:50;;;;;;;147.93;20.92;;;;;;;-0.92;100.00;103211.53;5073913;28;20427;-76
2022/01/19 01:28:17;;;;;;;63.60;17.80;;;;;;;-0.93;100.00;103211.53;5073184;28;20185;-76
2022/01/19 01:30:43;;;;;;;76.15;18.50;;;;;;;-0.96;100.00;103207.16;5073800;28;20040;-76
2022/01/19 01:33:09;;;;;;;100.90;18.90;;;;;;;-0.99;100.00;103196.72;5073962;28;20111;-75
2022/01/19 01:35:35;;;;;;;61.63;18.08;;;;;;;-1.04;100.00;103182.84;5073633;28;20120;-76
2022/01/19 01:38:01;;;;;;;84.95;18.25;;;;;;;-1.07;100.00;103186.31;5073786;28;20048;-77
2022/01/19 01:40:27;;;;;;;182.73;20.55;;;;;;;-1.11;100.00;103173.28;5073595;28;20094;-76
2022/01/19 01:42:56;;;;;;;129.38;20.02;;;;;;;-1.16;100.00;103165.47;5073561;28;20103;-74
2022/01/19 01:45:28;;;;;;;73.60;18.50;;;;;;;-1.20;100.00;103157.63;5073581;28;20071;-76
2022/01/19 01:48:04;;;;;;;;;;;;;;;-1.25;100.00;103147.22;5073930;28;20025;-75
2022/01/19 01:53:27;;;;;;;182.63;21.27;;;;;;;-1.32;100.00;103151.56;5072736;28;20128;-77
2022/01/19 01:55:58;;;;;;;105.00;21.05;;;;;;;-1.34;100.00;103155.94;5074017;28;20126;-76
2022/01/19 01:58:26;;;;;;;66.32;18.08;;;;;;;-1.37;100.00;103152.47;5073646;28;20029;-77
2022/01/19 02:00:53;;;;;;;44.00;17.33;;;;;;;-1.38;100.00;103162.06;5072943;28;20068;-77
2022/01/19 02:03:18;;;;;;;71.07;17.95;;;;;;;-1.42;100.00;103166.44;5072042;28;20029;-77
2022/01/19 02:16:53;;;;;;;42.85;17.60;;;;;;;-1.63;100.00;103156.91;5073233;28;20042;-77
2022/01/19 02:22:04;;;;;;;55.03;18.88;;;;;;;-1.64;100.00;103149.09;5073055;28;20182;-76
2022/01/19 02:24:40;;;;;;;57.45;19.70;;;;;;;-1.62;100.00;103139.50;5072794;28;20082;-76
2022/01/19 02:40:19;;;;;;;52.13;17.83;;;;;;;-1.80;100.00;103093.44;5073255;28;20063;-76
2022/01/19 02:51:09;;;;;;;45.67;18.52;;;;;;;-1.96;100.00;103043.91;5072995;28;20499;-76
2022/01/19 02:53:36;;;;;;;53.05;19.30;;;;;;;-1.99;100.00;103024.75;5072440;28;20036;-76
2022/01/19 02:56:08;;;;;;;54.78;19.25;;;;;;;-2.01;100.00;103021.28;5072534;28;20091;-76
2022/01/19 02:58:38;;;;;;;51.60;19.58;;;;;;;-2.04;100.00;103014.34;5072958;28;20056;-76
2022/01/19 03:09:15;;;;;;;59.97;20.90;;;;;;;-2.00;100.00;102995.19;5073035;28;20109;-75
2022/01/19 03:11:41;;;;;;;61.03;21.15;;;;;;;-2.00;100.00;102983.88;5071376;28;20436;-75
2022/01/19 03:14:08;;;;;;;72.55;22.30;;;;;;;-1.95;100.00;102988.19;5071852;28;20037;-75
2022/01/19 03:16:34;;;;;;;77.10;25.17;;;;;;;-1.91;100.00;102983.84;5073277;28;20120;-75
2022/01/19 03:18:59;;;;;;;68.60;23.35;;;;;;;-1.82;100.00;102985.53;5071992;28;20067;-76
2022/01/19 03:21:24;;;;;;;71.18;23.63;;;;;;;-1.74;100.00;102993.34;5072181;28;20468;-75
2022/01/19 03:23:50;;;;;;;79.03;24.63;;;;;;;-1.67;100.00;102995.94;5072937;28;20079;-76
2022/01/19 03:26:15;;;;;;;92.60;24.92;;;;;;;-1.56;100.00;102998.47;5072429;28;20051;-75
2022/01/19 03:28:40;;;;;;;85.00;25.10;;;;;;;-1.43;100.00;102992.31;5072511;28;20494;-76
2022/01/19 03:31:06;;;;;;;86.65;25.15;;;;;;;-1.29;100.00;102986.13;5072917;28;20029;-74
2022/01/19 03:33:31;;;;;;;80.25;24.98;;;;;;;-1.19;100.00;102977.38;5070988;28;20037;-75
2022/01/19 03:35:57;;;;;;;88.90;25.35;;;;;;;-1.10;100.00;102974.69;5072260;28;20084;-76
2022/01/19 03:38:22;;;;;;;109.28;29.10;;;;;;;-0.99;100.00;102971.13;5073264;28;20380;-76
2022/01/19 03:40:49;;;;;;;128.10;30.20;;;;;;;-0.89;100.00;102976.25;5074906;28;20033;-76
2022/01/19 03:43:14;;;;;;;108.15;29.15;;;;;;;-0.78;100.00;102986.59;5075845;28;20115;-76
2022/01/19 03:45:40;;;;;;;166.68;35.45;;;;;;;-0.55;100.00;103001.25;5076029;28;20054;-76
2022/01/19 03:48:30;;;;;;;144.48;34.00;;;;;;;-0.31;100.00;103001.88;5075810;28;20391;-76
2022/01/19 03:50:56;;;;;;;174.77;38.00;;;;;;;-0.10;100.00;102998.19;5076487;28;20024;-76
2022/01/19 03:53:21;;;;;;;187.25;37.30;;;;;;;0.02;100.00;102992.78;5075917;28;20048;-75
2022/01/19 03:55:47;;;;;;;143.57;34.47;;;;;;;0.11;100.00;102982.22;5075618;28;20036;-76
2022/01/19 03:58:12;;;;;;;158.25;36.30;;;;;;;0.21;100.00;102985.59;5074740;28;20040;-76
2022/01/19 04:00:42;;;;;;;175.35;36.58;;;;;;;0.33;100.00;102969.72;5075510;28;20079;-77
2022/01/19 04:03:11;;;;;;;167.52;35.60;;;;;;;0.38;100.00;102961.78;5075512;28;20036;-77
2022/01/19 04:05:42;;;;;;;164.15;36.75;;;;;;;0.41;100.00;102958.28;5074242;28;20036;-77
2022/01/19 04:08:09;;;;;;;;;;;;;;;0.42;100.00;102963.47;5076489;28;20498;-76
2022/01/19 04:10:34;;;;;;;151.65;33.95;;;;;;;0.42;100.00;102960.88;5075255;28;20340;-76
2022/01/19 04:13:25;;;;;;;137.82;32.83;;;;;;;0.44;100.00;102961.69;5075303;28;20031;-77
2022/01/19 04:15:51;;;;;;;152.75;34.67;;;;;;;0.47;100.00;102958.19;5075255;28;20028;-76
2022/01/19 04:18:18;;;;;;;157.48;34.45;;;;;;;0.49;100.00;102964.25;5075107;28;20142;-76
2022/01/19 04:20:48;;;;;;;161.65;34.65;;;;;;;0.50;100.00;102960.75;5075072;28;20189;-76
2022/01/19 04:23:13;;;;;;;152.77;35.63;;;;;;;0.52;100.00;102953.72;5075855;28;20025;-75
2022/01/19 04:25:39;;;;;;;157.85;35.53;;;;;;;0.56;100.00;102952.81;5075004;28;20036;-77
2022/01/19 04:28:07;;;;;;;143.80;34.40;;;;;;;0.58;100.00;102948.38;5075442;28;20115;-76
2022/01/19 04:30:34;;;;;;;148.95;34.72;;;;;;;0.63;100.00;102943.97;5074456;28;20068;-76
2022/01/19 04:33:07;;;;;;;166.90;37.30;;;;;;;0.67;100.00;102936.91;5074964;28;20449;-76
2022/01/19 04:35:44;;;;;;;166.23;36.15;;;;;;;0.69;100.00;102937.78;5074851;28;20453;-76
2022/01/19 04:44:11;;;;;;;173.35;37.60;;;;;;;0.82;100.00;102909.59;5075186;28;20093;-77
2022/01/19 04:49:13;;;;;;;165.73;37.20;;;;;;;0.88;100.00;102897.28;5074685;28;20055;-76
2022/01/19 05:07:44;;;;;;;206.98;42.38;;;;;;;1.11;100.00;102885.50;5074218;28;20427;-76
2022/01/19 05:15:38;;;;;;;211.45;44.10;;;;;;;1.21;100.00;102879.22;5074574;28;20048;-76
2022/01/19 05:18:04;;;;;;;215.73;45.22;;;;;;;1.24;100.00;102880.91;5074144;28;20388;-75
2022/01/19 05:20:30;;;;;;;228.73;46.88;;;;;;;1.28;100.00;102874.69;5073579;28;20036;-76
2022/01/19 05:22:56;;;;;;;214.32;44.63;;;;;;;1.31;100.00;102869.38;5074044;28;20047;-75
2022/01/19 05:25:21;;;;;;;217.70;45.35;;;;;;;1.34;100.00;102865.84;5074204;28;20452;-75
2022/01/19 05:27:47;;;;;;;227.85;46.22;;;;;;;1.37;100.00;102865.78;5073868;28;20059;-76
2022/01/19 05:30:14;;;;;;;218.05;46.60;;;;;;;1.39;100.00;102857.00;5074406;28;20047;-76
2022/01/19 05:32:40;;;;;;;223.45;46.78;;;;;;;1.43;100.00;102859.56;5073611;28;20040;-77
2022/01/19 05:35:05;;;;;;;211.38;44.88;;;;;;;1.46;100.00;102860.34;5073610;28;20040;-76
2022/01/19 05:37:36;;;;;;;219.43;45.67;;;;;;;1.48;100.00;102848.09;5073551;28;20040;-74
2022/01/19 05:40:06;;;;;;;229.90;47.47;;;;;;;1.52;100.00;102841.91;5073695;28;20503;-75
2022/01/19 05:42:31;;;;;;;229.13;47.40;;;;;;;1.54;100.00;102836.63;5073498;28;20032;-76
2022/01/19 05:44:56;;;;;;;224.93;46.25;;;;;;;1.56;100.00;102835.66;5073298;28;20508;-76
2022/01/19 05:47:22;;;;;;;219.98;45.65;;;;;;;1.59;100.00;102824.25;5073612;28;20116;-76
2022/01/19 05:49:47;;;;;;;221.50;46.72;;;;;;;1.62;100.00;102825.94;5071998;28;20040;-76
2022/01/19 05:52:12;;;;;;;229.82;48.75;;;;;;;1.64;100.00;102817.13;5073436;28;20045;-76
2022/01/19 05:54:38;;;;;;;213.10;46.05;;;;;;;1.66;100.00;102810.09;5073435;28;20029;-76
2022/01/19 05:57:04;;;;;;;229.75;45.95;;;;;;;1.68;100.00;102805.66;5074068;28;20036;-76
2022/01/19 05:59:29;;;;;;;227.07;47.47;;;;;;;1.71;100.00;102796.88;5073682;28;20086;-75
2022/01/19 06:01:55;;;;;;;222.55;48.63;;;;;;;1.73;100.00;102789.81;5073048;28;20124;-76
2022/01/19 06:04:21;;;;;;;213.23;44.45;;;;;;;1.74;100.00;102791.56;5073832;28;20037;-76
2022/01/19 06:06:49;;;;;;;232.25;47.47;;;;;;;1.76;100.00;102780.13;5073012;28;20044;-76
2022/01/19 06:09:50;;;;;;;221.30;47.50;;;;;;;1.80;100.00;102782.69;5072521;28;20383;-76
2022/01/19 06:12:08;;;;;;;235.27;49.00;;;;;;;1.82;100.00;102786.13;5070098;28;20487;-76
2022/01/19 06:14:35;;;;;;;223.32;48.00;;;;;;;1.83;100.00;102775.59;5072733;28;20043;-78
2022/01/19 06:17:02;;;;;;;225.40;50.97;;;;;;;1.86;100.00;102769.41;5071721;28;20449;-79
2022/01/19 06:19:28;;;;;;;232.93;49.88;;;;;;;1.87;100.00;102763.28;5073078;28;20036;-75
2022/01/19 06:21:53;;;;;;;228.25;50.50;;;;;;;1.90;100.00;102755.34;5073501;28;20024;-78
2022/01/19 06:24:19;;;;;;;238.63;53.58;;;;;;;1.95;100.00;102758.69;5073595;28;20134;-79
2022/01/19 06:26:45;;;;;;;237.40;51.25;;;;;;;1.97;100.00;102754.28;5073298;28;20029;-78
2022/01/19 06:29:10;;;;;;;241.27;56.08;;;;;;;1.99;100.00;102741.97;5072967;28;20037;-78
2022/01/19 06:31:36;;;;;;;246.32;57.85;;;;;;;2.01;100.00;102740.16;5072902;28;20037;-79
2022/01/19 06:34:01;;;;;;;238.88;57.38;;;;;;;2.07;100.00;102749.66;5072972;28;20064;-79
2022/01/19 06:36:26;;;;;;;206.07;50.90;;;;;;;2.10;100.00;102739.94;5072789;28;20027;-79
2022/01/19 06:38:52;;;;;;;247.75;58.47;;;;;;;2.14;100.00;102739.88;5073416;28;20111;-81
2022/01/19 06:41:18;;;;;;;230.32;54.33;;;;;;;2.15;100.00;102729.34;5073183;28;20058;-81
2022/01/19 06:43:44;;;;;;;248.40;57.72;;;;;;;2.16;100.00;102725.78;5072623;28;20064;-77
2022/01/19 06:46:09;;;;;;;219.40;55.33;;;;;;;2.19;100.00;102724.88;5073132;28;20381;-79
2022/01/19 06:48:34;;;;;;;262.60;58.00;;;;;;;2.23;100.00;102723.91;5072199;28;20418;-78
2022/01/19 06:51:00;;;;;;;228.02;58.28;;;;;;;2.23;100.00;102714.25;5072770;28;20090;-80
2022/01/19 06:53:26;;;;;;;221.00;56.90;;;;;;;2.27;100.00;102717.66;5072397;28;20036;-78
2022/01/19 06:55:52;;;;;;;221.70;57.47;;;;;;;2.29;100.00;102713.22;5070994;28;20087;-80
2022/01/19 06:58:17;;;;;;;216.57;58.30;;;;;;;2.34;100.00;102718.34;5071323;28;20038;-78
2022/01/19 07:00:43;;;;;;;244.77;60.90;;;;;;;2.37;100.00;102715.66;5072642;28;20470;-80
2022/01/19 07:03:09;;;;;;;233.63;61.90;;;;;;;2.37;100.00;102707.75;5074409;28;20032;-78
2022/01/19 07:05:34;;;;;;;213.90;58.58;;;;;;;2.37;100.00;102705.13;5072309;28;20412;-77
2022/01/19 07:08:00;;;;;;;228.93;64.55;;;;;;;2.40;100.00;102705.91;5071096;28;20508;-78
2022/01/19 07:10:31;;;;;;;229.48;64.00;;;;;;;2.49;100.00;102704.81;5072591;28;20388;-83
2022/01/19 07:12:56;;;;;;;230.30;64.80;;;;;;;2.57;100.00;102713.38;5072186;28;20035;-79
2022/01/19 07:15:22;;;;;;;220.95;65.97;;;;;;;2.56;100.00;102692.38;5075448;28;20372;-81
2022/01/19 07:17:47;;;;;;;215.70;64.80;;;;;;;2.56;100.00;102690.59;5075857;28;20111;-79
2022/01/19 07:20:13;;;;;;;202.35;66.25;;;;;;;2.56;100.00;102676.63;5076410;28;20173;-81
2022/01/19 07:22:38;;;;;;;200.82;63.97;;;;;;;2.58;100.00;102688.81;5076126;28;20072;-81
2022/01/19 07:25:04;;;;;;;187.45;60.95;;;;;;;2.60;100.00;102680.88;5076076;28;20033;-83
2022/01/19 07:27:29;;;;;;;172.80;58.60;;;;;;;2.62;100.00;102681.69;5075943;28;20049;-81
2022/01/19 07:29:57;;;;;;;178.15;57.25;;;;;;;2.63;100.00;102693.94;5074605;28;20060;-82
2022/01/19 07:32:24;;;;;;;194.80;59.40;;;;;;;2.69;100.00;102698.16;5075578;28;20412;-77
2022/01/19 07:34:49;;;;;;;178.25;60.17;;;;;;;2.70;100.00;102692.84;5075725;28;20400;-80
2022/01/19 07:37:15;;;;;;;154.20;54.85;;;;;;;2.75;100.00;102690.13;5075858;28;20195;-78
2022/01/19 07:39:40;;;;;;;137.43;54.78;;;;;;;2.77;100.00;102685.66;5075650;28;20070;-79
2022/01/19 07:42:06;;;;;;;152.25;56.67;;;;;;;2.82;100.00;102689.00;5075685;28;20369;-79
2022/01/19 07:44:32;;;;;;;143.68;56.38;;;;;;;2.84;100.00;102681.97;5074063;28;20029;-79
2022/01/19 07:46:57;;;;;;;139.48;54.95;;;;;;;2.84;100.00;102674.06;5076228;28;20059;-78
2022/01/19 07:49:23;;;;;;;144.05;54.90;;;;;;;2.88;100.00;102666.94;5076301;28;20422;-78
2022/01/19 07:51:49;;;;;;;122.28;51.42;;;;;;;2.87;100.00;102665.25;5075535;28;20116;-77
2022/01/19 07:54:14;;;;;;;120.47;49.90;;;;;;;2.89;100.00;102663.41;5074506;28;20120;-78
2022/01/19 07:56:40;;;;;;;110.93;50.15;;;;;;;2.91;100.00;102662.47;5075592;28;20434;-77
2022/01/19 07:59:05;;;;;;;116.10;47.72;;;;;;;2.87;100.00;102652.09;5074330;28;20127;-77
2022/01/19 08:01:31;;;;;;;107.25;47.45;;;;;;;2.87;100.00;102652.09;5076374;28;20453;-78
2022/01/19 08:04:00;;;;;;;122.65;48.67;;;;;;;2.83;100.00;102651.31;5075827;28;20032;-80
2022/01/19 08:06:26;;;;;;;110.53;45.72;;;;;;;2.86;100.00;102643.31;5074340;28;20071;-79
2022/01/19 08:08:51;;;;;;;109.60;46.17;;;;;;;2.84;100.00;102642.53;5075416;28;20085;-76
2022/01/19 08:11:17;;;;;;;107.40;45.53;;;;;;;2.84;100.00;102634.63;5075782;28;20032;-81
2022/01/19 08:13:42;;;;;;;117.78;46.10;;;;;;;2.86;100.00;102631.97;5075249;28;20472;-77
2022/01/19 08:16:07;;;;;;;115.35;47.75;;;;;;;2.93;100.00;102637.00;5075111;28;20113;-79
2022/01/19 08:18:33;;;;;;;117.68;46.40;;;;;;;2.91;100.00;102635.31;5075404;28;20040;-82
2022/01/19 08:20:58;;;;;;;106.97;46.47;;;;;;;2.91;100.00;102632.66;5075317;28;20100;-79
2022/01/19 08:23:24;;;;;;;114.90;45.80;;;;;;;2.89;100.00;102630.09;5075112;28;20036;-80
2022/01/19 08:25:49;;;;;;;106.80;44.65;;;;;;;2.88;100.00;102628.38;5078154;28;20047;-81
2022/01/19 08:28:15;;;;;;;105.50;45.55;;;;;;;2.89;100.00;102632.72;5074725;28;20040;-80
2022/01/19 08:30:40;;;;;;;106.10;43.15;;;;;;;2.94;100.00;102627.31;5074987;28;20037;-85
2022/01/19 08:33:06;;;;;;;103.47;43.15;;;;;;;2.94;100.00;102628.19;5073763;28;20032;-83
2022/01/19 08:35:31;;;;;;;110.95;45.22;;;;;;;2.99;100.00;102622.81;5075343;28;20115;-84
2022/01/19 08:37:57;;;;;;;93.28;42.83;;;;;;;2.97;100.00;102614.06;5073410;28;20487;-84
2022/01/19 08:40:27;;;;;;;102.57;42.95;;;;;;;2.98;100.00;102623.69;5074285;28;20033;-79
2022/01/19 08:42:53;;;;;;;102.03;41.77;;;;;;;2.98;100.00;102613.19;5074694;28;20124;-78
2022/01/19 08:45:19;;;;;;;97.68;43.20;;;;;;;2.99;100.00;102610.50;5074991;28;20597;-78
2022/01/19 08:47:46;;;;;;;97.13;42.47;;;;;;;2.98;100.00;102598.25;5073357;28;20471;-78
2022/01/19 08:50:14;;;;;;;105.28;42.17;;;;;;;3.03;100.00;102599.88;5074398;28;20071;-77
2022/01/19 08:52:39;;;;;;;93.40;42.60;;;;;;;3.05;100.00;102598.09;5074854;28;20036;-79
2022/01/19 08:55:06;;;;;;;91.72;40.42;;;;;;;3.06;100.00;102590.16;5073331;28;20545;-81
2022/01/19 08:57:32;;;;;;;92.25;40.50;;;;;;;3.08;100.00;102584.84;5073878;28;20054;-79
2022/01/19 08:59:57;;;;;;;91.68;40.38;;;;;;;3.10;100.00;102589.13;5074175;28;20115;-81
2022/01/19 09:02:22;;;;;;;101.22;41.47;;;;;;;3.11;100.00;102582.13;5074459;28;20063;-76
2022/01/19 09:04:48;;;;;;;91.32;39.03;;;;;;;3.12;100.00;102579.44;5073842;28;20032;-78
2022/01/19 09:07:14;;;;;;;88.95;40.65;;;;;;;3.14;100.00;102574.97;5074049;28;20082;-79
2022/01/19 09:09:39;;;;;;;87.00;39.38;;;;;;;3.14;100.00;102572.34;5073592;28;20035;-81
2022/01/19 09:12:05;;;;;;;81.38;37.92;;;;;;;3.14;100.00;102574.13;5074386;28;20476;-84
2022/01/19 09:14:31;;;;;;;85.70;38.90;;;;;;;3.16;100.00;102573.19;5073452;28;20078;-78
2022/01/19 09:16:57;;;;;;;89.80;37.88;;;;;;;3.20;100.00;102559.91;5073523;28;20037;-78
2022/01/19 09:19:23;;;;;;;85.20;38.35;;;;;;;3.19;100.00;102559.03;5073580;28;20434;-77
2022/01/19 09:21:49;;;;;;;87.07;39.03;;;;;;;3.20;100.00;102534.47;5073530;28;20028;-78
2022/01/19 09:24:16;;;;;;;82.50;37.63;;;;;;;3.22;100.00;102539.69;5072489;28;20036;-82
2022/01/19 09:26:41;;;;;;;88.75;39.22;;;;;;;3.23;100.00;102528.25;5072151;28;20024;-82
2022/01/19 09:29:07;;;;;;;88.55;36.70;;;;;;;3.26;100.00;102533.41;5073345;28;20078;-83
2022/01/19 09:31:34;;;;;;;81.45;35.03;;;;;;;3.31;100.00;102534.09;5071742;28;20029;-79
2022/01/19 09:34:10;;;;;;;78.97;35.90;;;;;;;3.37;100.00;102530.41;5073123;28;20039;-78
2022/01/19 09:36:44;;;;;;;74.55;36.50;;;;;;;3.32;100.00;102520.06;5057022;28;20457;-80
2022/01/19 09:39:11;;;;;;;79.07;34.65;;;;;;;3.31;100.00;102521.84;5072799;28;20050;-78
2022/01/19 09:41:36;;;;;;;78.30;35.20;;;;;;;3.35;100.00;102531.31;5072816;28;20094;-77
2022/01/19 09:44:02;;;;;;;71.30;33.22;;;;;;;3.38;100.00;102543.53;5071057;28;20472;-79
2022/01/19 09:46:29;;;;;;;74.95;33.95;;;;;;;3.41;100.00;102542.56;5071083;28;20056;-75
2022/01/19 09:48:55;;;;;;;68.82;31.50;;;;;;;3.40;100.00;102541.69;5073015;28;20095;-78
2022/01/19 09:51:21;;;;;;;65.68;31.77;;;;;;;3.35;100.00;102549.75;5073026;28;20040;-77
2022/01/19 09:53:48;;;;;;;65.88;32.22;;;;;;;3.38;100.00;102547.94;5073124;28;20535;-80
2022/01/19 09:56:18;;;;;;;58.40;29.67;;;;;;;3.42;100.00;102541.63;5072348;28;20025;-82
2022/01/19 09:58:44;;;;;;;62.83;29.80;;;;;;;3.41;100.00;102548.69;5072672;28;20052;-80
2022/01/19 10:01:09;;;;;;;67.55;31.42;;;;;;;3.41;100.00;102547.84;5072699;28;20052;-83
2022/01/19 10:03:35;;;;;;;67.72;31.83;;;;;;;3.36;100.00;102555.88;5072282;28;20036;-83
2022/01/19 10:06:22;;;;;;;65.30;29.98;;;;;;;3.34;100.00;102549.78;5073091;28;20036;-79
2022/01/19 10:08:54;;;;;;;59.92;28.67;;;;;;;3.36;100.00;102548.00;5071866;28;20082;-82
2022/01/19 10:17:00;;;;;;;59.55;30.27;;;;;;;3.42;100.00;102528.47;5072825;28;20116;-78
2022/01/19 10:19:33;;;;;;;77.07;31.20;;;;;;;3.43;100.00;102536.31;5072812;28;20090;-81
2022/01/19 10:22:01;;;;;;;66.47;30.73;;;;;;;3.48;100.00;102531.78;5074073;28;20028;-83
2022/01/19 10:24:35;;;;;;;65.38;30.60;;;;;;;3.57;100.00;102537.63;5072333;28;20024;-79
2022/01/19 10:27:35;;;;;;;62.35;28.08;;;;;;;3.62;100.00;102536.56;5072077;28;20438;-80
2022/01/19 10:30:04;;;;;;;64.38;30.10;;;;;;;3.71;100.00;102527.50;5072442;28;20025;-80
2022/01/19 10:32:31;;;;;;;59.03;29.88;;;;;;;3.75;100.00;102529.13;5072049;28;20051;-78
2022/01/19 10:34:56;;;;;;;60.22;30.45;;;;;;;3.81;100.00;102528.91;5072030;28;20040;-81
2022/01/19 10:37:27;;;;;;;59.95;29.33;;;;;;;3.85;100.00;102511.22;5072258;28;20214;-79
2022/01/19 10:39:57;;;;;;;59.13;30.05;;;;;;;3.96;100.00;102495.03;5072262;28;20035;-78
2022/01/19 10:42:25;;;;;;;59.05;29.20;;;;;;;4.08;100.00;102491.09;5073068;28;20050;-80
2022/01/19 10:44:56;;;;;;;60.58;30.90;;;;;;;4.10;100.00;102468.19;5072392;28;20461;-82
2022/01/19 10:47:42;;;;;;;61.63;29.58;;;;;;;4.21;100.00;102472.13;5073117;28;20051;-79
2022/01/19 10:50:31;;;;;;;67.25;31.17;;;;;;;4.65;100.00;102468.69;5075820;28;20028;-80
2022/01/19 10:52:59;;;;;;;50.15;27.17;;;;;;;5.16;100.00;102477.19;5076416;28;20483;-77
2022/01/19 10:55:47;;;;;;;53.95;28.48;;;;;;;5.41;95.13;102462.97;5076141;28;20039;-83
2022/01/19 10:58:15;;;;;;;56.67;28.88;;;;;;;5.50;93.54;102444.09;5076670;28;20033;-80
2022/01/19 11:00:49;;;;;;;54.28;28.02;;;;;;;5.60;93.86;102460.41;5075946;28;20029;-81
2022/01/19 11:03:23;;;;;;;45.22;25.05;;;;;;;5.82;92.31;102455.00;5076304;28;20115;-82
2022/01/19 11:05:55;;;;;;;50.85;28.58;;;;;;;5.85;90.82;102457.50;5075941;28;20035;-78
2022/01/19 11:08:24;;;;;;;51.40;26.77;;;;;;;6.04;91.00;102448.78;5075523;28;20030;-79
2022/01/19 11:10:52;;;;;;;42.70;23.38;;;;;;;6.37;89.09;102449.00;5075784;28;20024;-85
2022/01/19 11:13:30;;;;;;;46.65;25.13;;;;;;;6.81;88.63;102439.88;5075548;28;20354;-82
2022/01/19 11:15:58;;;;;;;40.65;24.02;;;;;;;7.21;84.63;102432.56;5075479;28;20029;-83
2022/01/19 11:18:29;;;;;;;41.70;23.35;;;;;;;7.16;83.54;102429.31;5075807;28;20025;-79
2022/01/19 11:20:57;;;;;;;31.85;15.90;;;;;;;7.05;83.06;102417.47;5075345;28;20513;-80
2022/01/19 11:23:50;;;;;;;25.70;13.65;;;;;;;6.99;81.38;102407.19;5076240;28;20479;-76
2022/01/19 11:26:20;;;;;;;17.40;6.50;;;;;;;6.73;81.01;102408.47;5075855;28;20047;-77
2022/01/19 11:28:49;;;;;;;12.68;4.03;;;;;;;6.37;79.64;102400.56;5075125;28;20113;-80
2022/01/19 11:31:37;;;;;;;9.57;3.28;;;;;;;6.19;79.40;102403.16;5075299;28;20038;-83
2022/01/19 11:34:03;;;;;;;17.42;3.60;;;;;;;6.10;81.37;102391.22;5075267;28;20484;-81
2022/01/19 11:36:34;;;;;;;15.55;3.30;;;;;;;6.08;80.51;102369.31;5075294;28;20033;-79
2022/01/19 11:39:22;;;;;;;14.73;3.50;;;;;;;6.07;81.10;102369.38;5075214;28;20029;-76
2022/01/19 11:42:00;;;;;;;15.68;3.97;;;;;;;5.97;80.97;102375.09;5075002;28;20029;-79
2022/01/19 11:44:29;;;;;;;13.65;4.10;;;;;;;5.96;81.42;102364.56;5074423;28;20043;-77
2022/01/19 11:46:58;;;;;;;8.30;2.85;;;;;;;5.86;81.42;102368.56;5075250;28;20049;-78
2022/01/19 11:49:48;;;;;;;15.88;3.38;;;;;;;5.79;82.50;102358.28;5076072;28;20074;-75
2022/01/19 11:52:19;;;;;;;13.40;4.40;;;;;;;5.70;83.33;102347.28;5074484;28;20032;-76
2022/01/19 11:54:46;;;;;;;14.35;3.60;;;;;;;5.72;82.40;102335.72;5074891;28;20059;-76
2022/01/19 11:57:17;;;;;;;17.02;3.67;;;;;;;5.70;83.24;102340.19;5074611;28;20082;-76
2022/01/19 11:59:46;;;;;;;;;;;;;;;5.60;82.83;102331.84;5074536;28;20032;-79
2022/01/19 12:02:29;;;;;;;12.70;3.42;;;;;;;5.57;83.20;102324.06;5073334;28;19912;-75
2022/01/19 12:05:15;;;;;;;10.65;3.60;;;;;;;5.51;84.56;102324.38;5074463;28;20349;-77
2022/01/19 12:07:45;;;;;;;12.50;4.32;;;;;;;5.42;84.72;102316.84;5075392;28;20024;-77
2022/01/19 12:10:14;;;;;;;12.93;3.47;;;;;;;5.37;85.00;102316.19;5072776;28;20021;-74
2022/01/19 12:12:55;;;;;;;18.75;4.10;;;;;;;5.37;85.61;102310.91;5074754;28;20437;-75
2022/01/19 12:15:54;;;;;;;13.20;4.20;;;;;;;5.41;85.46;102309.84;5075085;28;20020;-77
2022/01/19 12:18:37;;;;;;;15.10;4.28;;;;;;;5.41;85.19;102320.41;5074554;28;20028;-76
2022/01/19 12:21:04;;;;;;;14.35;3.53;;;;;;;5.35;85.38;102307.50;5074461;28;20063;-82
2022/01/19 12:23:31;;;;;;;13.35;3.38;;;;;;;5.33;85.75;102310.22;5074937;28;20101;-76
2022/01/19 12:25:59;;;;;;;12.55;3.83;;;;;;;5.30;85.96;102305.06;5075037;28;20067;-79
2022/01/19 12:29:08;;;;;;;19.08;3.70;;;;;;;5.27;85.28;102298.13;5074723;28;20060;-78
2022/01/19 12:31:36;;;;;;;16.08;3.72;;;;;;;5.22;86.19;102284.28;5071220;28;20059;-75
2022/01/19 12:34:04;;;;;;;15.13;4.22;;;;;;;5.25;86.31;102286.78;5075750;28;20025;-79
2022/01/19 12:36:54;;;;;;;13.38;3.95;;;;;;;5.24;87.05;102271.00;5075939;28;20133;-79
2022/01/19 12:39:25;;;;;;;18.98;4.38;;;;;;;5.29;87.12;102267.25;5076319;28;20024;-81